createdAt,value
2018-11-05T00:00:19.096Z,10.90
2018-11-05T00:07:51.930Z,11.00
2018-11-05T00:10:20.490Z,11.00
2018-11-05T00:12:49.417Z,11.10
2018-11-05T00:15:20.325Z,11.10
2018-11-05T00:17:49.340Z,11.10
2018-11-05T00:20:17.968Z,11.10
2018-11-05T00:22:46.488Z,11.10
2018-11-05T00:25:15.339Z,11.10
2018-11-05T00:27:43.960Z,11.10
2018-11-05T00:30:13.622Z,11.00
2018-11-05T00:32:42.681Z,11.00
2018-11-05T00:35:11.312Z,11.00
2018-11-05T00:37:39.804Z,11.00
2018-11-05T00:40:10.629Z,11.00
2018-11-05T00:42:39.504Z,11.00
2018-11-05T00:45:09.057Z,11.00
2018-11-05T00:47:37.537Z,11.00
2018-11-05T00:50:08.278Z,11.00
2018-11-05T00:52:36.879Z,10.90
2018-11-05T00:55:05.372Z,10.90
2018-11-05T00:57:33.795Z,10.90
2018-11-05T01:00:02.239Z,10.90
2018-11-05T01:02:31.112Z,10.90
2018-11-05T01:04:59.800Z,10.90
2018-11-05T01:07:28.453Z,10.90
2018-11-05T01:09:56.890Z,10.90
2018-11-05T01:12:25.652Z,10.90
2018-11-05T01:14:54.292Z,11.00
2018-11-05T01:17:22.862Z,11.00
2018-11-05T01:19:51.547Z,11.00
2018-11-05T01:22:20.087Z,11.00
2018-11-05T01:24:48.676Z,11.10
2018-11-05T01:27:19.688Z,11.10
2018-11-05T01:29:48.533Z,11.20
2018-11-05T01:32:17.209Z,11.20
2018-11-05T01:34:45.888Z,11.20
2018-11-05T01:37:15.275Z,11.20
2018-11-05T01:39:43.788Z,11.20
2018-11-05T01:42:12.792Z,11.10
2018-11-05T01:44:42.077Z,11.10
2018-11-05T01:47:10.673Z,11.10
2018-11-05T01:49:39.492Z,11.20
2018-11-05T01:52:08.689Z,11.20
2018-11-05T01:54:37.786Z,11.20
2018-11-05T01:57:06.369Z,11.20
2018-11-05T01:59:35.136Z,11.20
2018-11-05T02:02:03.767Z,11.20
2018-11-05T02:04:32.315Z,11.20
2018-11-05T02:07:00.700Z,11.20
2018-11-05T02:09:29.234Z,11.20
2018-11-05T02:11:57.655Z,11.20
2018-11-05T02:14:26.347Z,11.20
2018-11-05T02:16:54.973Z,11.20
2018-11-05T02:19:23.723Z,11.20
2018-11-05T02:21:52.400Z,11.30
2018-11-05T02:24:21.058Z,11.30
2018-11-05T02:26:49.432Z,11.30
2018-11-05T02:29:18.049Z,11.30
2018-11-05T02:31:46.429Z,11.30
2018-11-05T02:34:15.119Z,11.30
2018-11-05T02:36:43.697Z,11.30
2018-11-05T02:39:12.238Z,11.30
2018-11-05T02:41:40.580Z,11.30
2018-11-05T02:44:09.029Z,11.30
2018-11-05T02:46:37.688Z,11.20
2018-11-05T02:49:06.156Z,11.20
2018-11-05T02:51:34.776Z,11.20
2018-11-05T02:54:03.238Z,11.20
2018-11-05T02:56:31.871Z,11.20
2018-11-05T02:59:00.312Z,11.20
2018-11-05T03:01:29.145Z,11.20
2018-11-05T03:03:57.538Z,11.20
2018-11-05T03:06:26.112Z,11.20
2018-11-05T03:08:54.649Z,11.20
2018-11-05T03:11:23.572Z,11.30
2018-11-05T03:13:52.248Z,11.30
2018-11-05T03:16:21.161Z,11.20
2018-11-05T03:18:49.689Z,11.20
2018-11-05T03:21:18.421Z,11.20
2018-11-05T03:23:47.047Z,11.30
2018-11-05T03:26:15.595Z,11.30
2018-11-05T03:28:45.103Z,11.20
2018-11-05T03:31:13.948Z,11.20
2018-11-05T03:33:42.724Z,11.10
2018-11-05T03:36:11.979Z,11.10
2018-11-05T03:38:40.701Z,11.00
2018-11-05T03:41:10.150Z,10.90
2018-11-05T03:43:38.512Z,10.90
2018-11-05T03:46:06.928Z,10.90
2018-11-05T03:48:35.352Z,10.90
2018-11-05T03:51:03.941Z,10.80
2018-11-05T03:53:32.348Z,10.80
2018-11-05T03:56:00.929Z,10.70
2018-11-05T03:58:29.388Z,10.70
2018-11-05T04:00:57.802Z,10.60
2018-11-05T04:03:26.215Z,10.60
2018-11-05T04:05:54.654Z,10.70
2018-11-05T04:08:23.043Z,10.70
2018-11-05T04:10:51.477Z,10.70
2018-11-05T04:13:20.512Z,10.70
2018-11-05T04:15:49.214Z,10.80
2018-11-05T04:18:17.572Z,10.80
2018-11-05T04:20:45.972Z,10.90
2018-11-05T04:23:14.376Z,10.90
2018-11-05T04:25:42.781Z,11.00
2018-11-05T04:28:11.289Z,11.00
2018-11-05T04:30:39.732Z,11.10
2018-11-05T04:33:08.147Z,11.10
2018-11-05T04:35:36.914Z,11.10
2018-11-05T04:38:05.321Z,11.10
2018-11-05T04:40:33.757Z,11.20
2018-11-05T04:43:02.253Z,11.20
2018-11-05T04:45:30.619Z,11.20
2018-11-05T04:47:59.003Z,11.20
2018-11-05T04:50:27.424Z,11.20
2018-11-05T04:52:55.873Z,11.20
2018-11-05T04:55:24.268Z,11.20
2018-11-05T04:57:52.657Z,11.20
2018-11-05T05:00:21.046Z,11.20
2018-11-05T05:02:49.645Z,11.10
2018-11-05T05:05:19.095Z,11.00
2018-11-05T05:07:48.387Z,11.00
2018-11-05T05:10:16.877Z,10.90
2018-11-05T05:12:45.272Z,10.80
2018-11-05T05:15:14.512Z,10.80
2018-11-05T05:17:42.929Z,10.80
2018-11-05T05:20:13.593Z,10.80
2018-11-05T05:22:43.306Z,10.80
2018-11-05T05:25:11.614Z,10.80
2018-11-05T05:27:40.385Z,10.70
2018-11-05T05:30:12.568Z,10.80
2018-11-05T05:32:41.002Z,10.70
2018-11-05T05:35:09.464Z,10.80
2018-11-05T05:37:37.911Z,10.80
2018-11-05T05:40:07.067Z,10.80
2018-11-05T05:42:35.456Z,10.90
2018-11-05T05:45:05.389Z,10.90
2018-11-05T05:47:33.841Z,10.90
2018-11-05T05:50:03.662Z,11.00
2018-11-05T05:52:32.391Z,11.00
2018-11-05T05:55:01.323Z,11.00
2018-11-05T05:57:32.145Z,11.00
2018-11-05T06:00:00.861Z,11.00
2018-11-05T06:02:29.126Z,11.10
2018-11-05T06:04:57.529Z,11.00
2018-11-05T06:07:25.976Z,11.00
2018-11-05T06:09:54.413Z,11.00
2018-11-05T06:12:23.142Z,11.10
2018-11-05T06:14:51.644Z,11.00
2018-11-05T06:17:20.044Z,11.00
2018-11-05T06:19:48.584Z,11.00
2018-11-05T06:22:17.560Z,11.00
2018-11-05T06:24:46.064Z,11.00
2018-11-05T06:27:14.505Z,11.00
2018-11-05T06:29:42.890Z,11.00
2018-11-05T06:32:11.247Z,10.90
2018-11-05T06:34:40.111Z,10.90
2018-11-05T06:37:08.479Z,10.90
2018-11-05T06:39:37.885Z,10.80
2018-11-05T06:42:06.378Z,10.80
2018-11-05T06:44:36.753Z,10.80
2018-11-05T06:47:09.982Z,10.80
2018-11-05T06:49:38.616Z,10.80
2018-11-05T06:52:07.372Z,10.80
2018-11-05T06:54:35.992Z,10.80
2018-11-05T06:57:04.425Z,10.80
2018-11-05T06:59:33.092Z,10.80
2018-11-05T07:02:01.736Z,10.80
2018-11-05T07:04:30.196Z,10.80
2018-11-05T07:06:58.668Z,10.80
2018-11-05T07:09:27.300Z,10.90
2018-11-05T07:11:55.742Z,10.90
2018-11-05T07:14:24.216Z,11.00
2018-11-05T07:16:52.689Z,11.00
2018-11-05T07:19:21.188Z,11.10
2018-11-05T07:21:49.595Z,11.20
2018-11-05T07:24:17.937Z,11.20
2018-11-05T07:26:46.376Z,11.30
2018-11-05T07:29:14.827Z,11.40
2018-11-05T07:31:43.286Z,11.40
2018-11-05T07:34:11.771Z,11.50
2018-11-05T07:36:40.065Z,11.60
2018-11-05T07:39:11.099Z,11.70
2018-11-05T07:41:39.994Z,11.70
2018-11-05T07:44:08.648Z,11.70
2018-11-05T07:46:37.263Z,11.80
2018-11-05T07:49:05.682Z,11.80
2018-11-05T07:51:34.480Z,11.80
2018-11-05T07:54:10.689Z,11.80
2018-11-05T07:56:39.266Z,11.80
2018-11-05T07:59:07.647Z,11.90
2018-11-05T08:01:36.096Z,11.90
2018-11-05T08:04:05.106Z,12.00
2018-11-05T08:06:33.544Z,12.10
2018-11-05T08:09:02.174Z,12.30
2018-11-05T08:11:30.561Z,12.40
2018-11-05T08:13:58.956Z,12.40
2018-11-05T08:16:27.395Z,12.60
2018-11-05T08:18:55.821Z,12.70
2018-11-05T08:21:24.230Z,12.80
2018-11-05T08:23:52.612Z,13.00
2018-11-05T08:26:21.045Z,13.10
2018-11-05T08:28:49.479Z,13.20
2018-11-05T08:31:17.955Z,13.30
2018-11-05T08:33:47.093Z,13.30
2018-11-05T08:36:15.557Z,13.40
2018-11-05T08:38:43.996Z,13.50
2018-11-05T08:41:12.653Z,13.60
2018-11-05T08:43:41.087Z,13.70
2018-11-05T08:46:09.524Z,13.70
2018-11-05T08:48:37.880Z,13.80
2018-11-05T08:51:06.445Z,13.80
2018-11-05T08:53:34.710Z,13.90
2018-11-05T08:56:03.136Z,13.90
2018-11-05T08:58:31.678Z,13.90
2018-11-05T09:01:05.375Z,14.00
2018-11-05T09:03:33.809Z,14.00
2018-11-05T09:06:02.480Z,14.00
2018-11-05T09:08:31.231Z,14.10
2018-11-05T09:10:59.944Z,14.10
2018-11-05T09:13:28.134Z,14.10
2018-11-05T09:15:56.612Z,14.00
2018-11-05T09:18:25.050Z,13.90
2018-11-05T09:20:53.506Z,13.80
2018-11-05T09:23:21.839Z,13.70
2018-11-05T09:25:50.264Z,13.70
2018-11-05T09:28:18.747Z,13.60
2018-11-05T09:30:47.195Z,13.60
2018-11-05T09:33:15.611Z,13.60
2018-11-05T09:35:44.141Z,13.80
2018-11-05T09:38:12.726Z,14.00
2018-11-05T09:40:41.409Z,14.20
2018-11-05T09:43:09.923Z,14.30
2018-11-05T09:45:38.708Z,14.50
2018-11-05T09:48:07.238Z,14.60
2018-11-05T09:50:35.801Z,14.70
2018-11-05T09:53:04.278Z,14.60
2018-11-05T09:55:32.777Z,14.50
2018-11-05T09:58:02.015Z,14.40
2018-11-05T10:00:30.707Z,14.30
2018-11-05T10:03:06.336Z,14.30
2018-11-05T10:05:35.297Z,14.30
2018-11-05T10:08:03.707Z,14.30
2018-11-05T10:10:32.092Z,14.30
2018-11-05T10:13:00.489Z,14.40
2018-11-05T10:15:28.877Z,14.60
2018-11-05T10:17:57.282Z,14.70
2018-11-05T10:20:25.848Z,14.80
2018-11-05T10:22:54.264Z,14.90
2018-11-05T10:25:22.709Z,14.90
2018-11-05T10:27:51.864Z,14.90
2018-11-05T10:30:23.695Z,15.00
2018-11-05T10:32:52.230Z,15.10
2018-11-05T10:35:20.759Z,15.20
2018-11-05T10:37:49.188Z,15.40
2018-11-05T10:40:19.374Z,15.60
2018-11-05T10:42:48.162Z,15.70
2018-11-05T10:45:18.445Z,15.80
2018-11-05T10:47:47.686Z,16.00
2018-11-05T10:50:17.198Z,16.20
2018-11-05T10:52:46.980Z,16.30
2018-11-05T10:55:15.412Z,16.40
2018-11-05T10:57:44.081Z,16.40
2018-11-05T11:00:20.488Z,16.50
2018-11-05T11:02:54.496Z,16.50
2018-11-05T11:05:23.842Z,16.90
2018-11-05T11:07:53.092Z,17.40
2018-11-05T11:10:21.505Z,17.60
2018-11-05T11:12:49.926Z,17.70
2018-11-05T11:15:18.385Z,18.20
2018-11-05T11:17:46.701Z,18.60
2018-11-05T11:20:15.137Z,19.60
2018-11-05T11:22:43.553Z,20.00
2018-11-05T11:25:12.040Z,19.60
2018-11-05T11:27:40.698Z,19.40
2018-11-05T11:30:10.808Z,20.20
2018-11-05T11:32:39.368Z,21.20
2018-11-05T11:35:08.476Z,21.30
2018-11-05T11:37:36.853Z,22.00
2018-11-05T11:40:11.513Z,22.40
2018-11-05T11:42:40.869Z,24.00
2018-11-05T11:45:09.996Z,25.80
2018-11-05T11:47:38.569Z,26.30
2018-11-05T11:50:09.022Z,26.30
2018-11-05T11:52:37.367Z,27.20
2018-11-05T11:55:07.085Z,27.50
2018-11-05T11:57:35.531Z,28.60
2018-11-05T12:00:04.090Z,29.50
2018-11-05T12:02:32.540Z,30.40
2018-11-05T12:05:02.044Z,30.90
2018-11-05T12:07:30.393Z,30.90
2018-11-05T12:09:58.829Z,30.60
2018-11-05T12:12:27.259Z,30.10
2018-11-05T12:14:55.963Z,29.90
2018-11-05T12:17:24.268Z,29.70
2018-11-05T12:19:52.741Z,28.10
2018-11-05T12:22:21.159Z,26.40
2018-11-05T12:24:49.672Z,24.80
2018-11-05T12:27:18.116Z,23.30
2018-11-05T12:29:47.078Z,21.90
2018-11-05T12:32:15.621Z,20.60
2018-11-05T12:34:44.018Z,19.50
2018-11-05T12:37:12.496Z,18.60
2018-11-05T12:39:40.885Z,18.10
2018-11-05T12:42:09.312Z,17.70
2018-11-05T12:44:37.839Z,17.40
2018-11-05T12:47:06.180Z,17.20
2018-11-05T12:49:34.545Z,17.10
2018-11-05T12:52:02.984Z,16.90
2018-11-05T12:54:31.394Z,16.80
2018-11-05T12:56:59.834Z,16.70
2018-11-05T12:59:28.959Z,16.60
2018-11-05T13:01:58.961Z,16.60
2018-11-05T13:04:28.146Z,16.50
2018-11-05T13:06:56.683Z,16.50
2018-11-05T13:09:25.137Z,16.50
2018-11-05T13:11:53.540Z,16.50
2018-11-05T13:14:22.148Z,16.60
2018-11-05T13:16:51.504Z,16.60
2018-11-05T13:19:19.940Z,16.60
2018-11-05T13:21:48.243Z,16.50
2018-11-05T13:24:16.750Z,16.60
2018-11-05T13:26:45.243Z,16.60
2018-11-05T13:29:13.612Z,16.50
2018-11-05T13:31:41.952Z,16.50
2018-11-05T13:34:10.536Z,16.50
2018-11-05T13:36:39.141Z,16.40
2018-11-05T13:39:08.623Z,16.30
2018-11-05T13:41:37.041Z,16.30
2018-11-05T13:44:05.552Z,16.30
2018-11-05T13:46:34.456Z,16.30
2018-11-05T13:49:03.162Z,16.40
2018-11-05T13:51:31.368Z,16.50
2018-11-05T13:53:59.914Z,16.60
2018-11-05T13:56:28.315Z,16.60
2018-11-05T13:58:56.704Z,16.60
2018-11-05T14:01:25.124Z,16.60
2018-11-05T14:03:53.850Z,16.80
2018-11-05T14:06:22.313Z,16.80
2018-11-05T14:08:50.707Z,16.70
2018-11-05T14:11:19.150Z,16.80
2018-11-05T14:13:47.626Z,16.90
2018-11-05T14:16:16.026Z,16.80
2018-11-05T14:18:44.424Z,16.60
2018-11-05T14:21:12.931Z,16.50
2018-11-05T14:23:41.337Z,16.40
2018-11-05T14:26:09.742Z,16.30
2018-11-05T14:28:38.526Z,16.30
2018-11-05T14:31:06.620Z,16.30
2018-11-05T14:33:35.034Z,16.20
2018-11-05T14:36:03.510Z,16.20
2018-11-05T14:38:32.646Z,16.10
2018-11-05T14:41:01.057Z,16.00
2018-11-05T14:43:29.502Z,15.90
2018-11-05T14:45:57.903Z,15.90
2018-11-05T14:48:26.395Z,15.80
2018-11-05T14:50:54.831Z,15.80
2018-11-05T14:53:23.198Z,15.70
2018-11-05T14:55:51.736Z,15.70
2018-11-05T14:58:20.229Z,15.60
2018-11-05T15:00:48.735Z,15.60
2018-11-05T15:03:17.168Z,15.60
2018-11-05T15:05:45.646Z,15.60
2018-11-05T15:08:14.155Z,15.60
2018-11-05T15:10:42.573Z,15.70
2018-11-05T15:13:11.100Z,15.60
2018-11-05T15:15:39.458Z,15.60
2018-11-05T15:18:08.062Z,15.50
2018-11-05T15:20:38.872Z,15.40
2018-11-05T15:23:08.965Z,15.30
2018-11-05T15:25:38.332Z,15.20
2018-11-05T15:28:08.272Z,15.10
2018-11-05T15:30:38.401Z,15.00
2018-11-05T15:33:08.086Z,14.90
2018-11-05T15:38:21.839Z,14.70
2018-11-05T15:40:50.400Z,14.50
2018-11-05T15:43:18.933Z,14.40
2018-11-05T15:45:47.376Z,14.40
2018-11-05T15:48:16.372Z,14.20
2018-11-05T15:50:45.803Z,14.10
2018-11-05T15:53:15.599Z,14.00
2018-11-05T15:55:44.654Z,13.90
2018-11-05T15:58:13.867Z,13.90
2018-11-05T16:00:42.336Z,13.80
2018-11-05T16:03:10.776Z,13.70
2018-11-05T16:05:39.193Z,13.60
2018-11-05T16:08:08.260Z,13.60
2018-11-05T16:10:37.482Z,13.50
2018-11-05T16:13:06.369Z,13.40
2018-11-05T16:15:35.035Z,13.40
2018-11-05T16:18:03.529Z,13.40
2018-11-05T16:20:31.968Z,13.40
2018-11-05T16:23:00.456Z,13.40
2018-11-05T16:25:28.900Z,13.40
2018-11-05T16:27:57.705Z,13.40
2018-11-05T16:30:26.361Z,13.40
2018-11-05T16:32:55.084Z,13.30
2018-11-05T16:35:23.579Z,13.30
2018-11-05T16:37:52.017Z,13.30
2018-11-05T16:40:20.854Z,13.30
2018-11-05T16:42:50.233Z,13.30
2018-11-05T16:45:18.718Z,13.30
2018-11-05T16:47:47.606Z,13.20
2018-11-05T16:50:25.567Z,13.10
2018-11-05T16:52:53.999Z,13.10
2018-11-05T16:55:22.424Z,13.10
2018-11-05T16:57:51.754Z,13.10
2018-11-05T17:00:20.356Z,13.10
2018-11-05T17:02:49.641Z,13.10
2018-11-05T17:05:17.794Z,13.00
2018-11-05T17:07:46.203Z,13.00
2018-11-05T17:10:15.142Z,13.00
2018-11-05T17:12:44.049Z,13.00
2018-11-05T17:15:13.850Z,13.00
2018-11-05T17:17:42.953Z,13.00
2018-11-05T17:20:13.807Z,13.00
2018-11-05T17:22:42.867Z,13.00
2018-11-05T17:25:12.015Z,13.00
2018-11-05T17:27:40.849Z,13.00
2018-11-05T17:30:15.685Z,12.90
2018-11-05T17:32:44.757Z,12.90
2018-11-05T17:35:13.786Z,12.90
2018-11-05T17:37:42.396Z,12.90
2018-11-05T17:40:15.517Z,12.90
2018-11-05T17:42:44.155Z,12.90
2018-11-05T17:45:14.019Z,12.90
2018-11-05T17:47:42.514Z,12.90
2018-11-05T17:50:13.320Z,12.90
2018-11-05T17:52:42.274Z,12.90
2018-11-05T17:55:11.515Z,12.90
2018-11-05T17:57:40.706Z,12.90
2018-11-05T18:00:11.899Z,12.90
2018-11-05T18:02:40.358Z,12.90
2018-11-05T18:05:08.830Z,12.90
2018-11-05T18:07:37.286Z,12.90
2018-11-05T18:10:06.523Z,12.80
2018-11-05T18:12:35.024Z,12.80
2018-11-05T18:15:03.864Z,12.80
2018-11-05T18:17:32.387Z,12.70
2018-11-05T18:20:01.222Z,12.70
2018-11-05T18:22:29.719Z,12.60
2018-11-05T18:24:58.105Z,12.60
2018-11-05T18:27:26.532Z,12.50
2018-11-05T18:29:55.002Z,12.50
2018-11-05T18:32:23.515Z,12.50
2018-11-05T18:34:52.808Z,12.40
2018-11-05T18:37:21.278Z,12.30
2018-11-05T18:39:49.766Z,12.20
2018-11-05T18:42:18.225Z,12.10
2018-11-05T18:44:46.719Z,12.10
2018-11-05T18:47:15.181Z,12.00
2018-11-05T18:49:43.611Z,12.00
2018-11-05T18:52:18.720Z,11.90
2018-11-05T18:54:47.141Z,11.80
2018-11-05T18:57:15.783Z,11.70
2018-11-05T18:59:44.142Z,11.60
2018-11-05T19:02:16.889Z,11.50
2018-11-05T19:04:45.347Z,11.50
2018-11-05T19:07:13.775Z,11.40
2018-11-05T19:09:42.293Z,11.40
2018-11-05T19:12:10.693Z,11.30
2018-11-05T19:14:39.229Z,11.30
2018-11-05T19:17:07.648Z,11.20
2018-11-05T19:19:36.599Z,11.20
2018-11-05T19:22:05.513Z,11.10
2018-11-05T19:24:34.228Z,11.10
2018-11-05T19:27:02.613Z,11.00
2018-11-05T19:29:31.097Z,11.00
2018-11-05T19:31:59.585Z,11.00
2018-11-05T19:34:28.047Z,11.00
2018-11-05T19:38:45.147Z,10.90
2018-11-05T19:41:13.635Z,10.90
2018-11-05T19:43:42.106Z,10.90
2018-11-05T19:46:10.554Z,10.90
2018-11-05T19:48:39.104Z,10.90
2018-11-05T19:51:07.555Z,10.90
2018-11-05T19:53:36.159Z,10.90
2018-11-05T19:56:04.903Z,10.90
2018-11-05T19:58:34.483Z,10.80
2018-11-05T20:01:02.993Z,10.80
2018-11-05T20:03:31.396Z,10.80
2018-11-05T20:06:01.195Z,10.80
2018-11-05T20:08:29.591Z,10.80
2018-11-05T20:10:58.023Z,10.70
2018-11-05T20:13:26.540Z,10.70
2018-11-05T20:15:55.411Z,10.70
2018-11-05T20:18:24.793Z,10.60
2018-11-05T20:20:53.243Z,10.60
2018-11-05T20:23:21.670Z,10.60
2018-11-05T20:25:51.012Z,10.70
2018-11-05T20:28:19.547Z,10.70
2018-11-05T20:30:48.049Z,10.70
2018-11-05T20:33:16.763Z,10.70
2018-11-05T20:35:45.782Z,10.70
2018-11-05T20:38:14.317Z,10.60
2018-11-05T20:40:42.892Z,10.60
2018-11-05T20:43:11.442Z,10.50
2018-11-05T20:45:39.928Z,10.50
2018-11-05T20:48:08.428Z,10.50
2018-11-05T20:50:36.951Z,10.40
2018-11-05T20:53:05.715Z,10.40
2018-11-05T20:55:34.260Z,10.40
2018-11-05T20:58:02.721Z,10.30
2018-11-05T21:00:31.192Z,10.30
2018-11-05T21:02:59.689Z,10.30
2018-11-05T21:05:28.159Z,10.30
2018-11-05T21:07:58.927Z,10.30
2018-11-05T21:10:27.377Z,10.30
2018-11-05T21:12:55.791Z,10.30
2018-11-05T21:15:24.218Z,10.30
2018-11-05T21:17:54.542Z,10.40
2018-11-05T21:20:23.068Z,10.30
2018-11-05T21:22:51.823Z,10.30
2018-11-05T21:25:20.136Z,10.30
2018-11-05T21:27:48.519Z,10.20
2018-11-05T21:30:18.854Z,10.20
2018-11-05T21:32:47.347Z,10.20
2018-11-05T21:35:17.151Z,10.20
2018-11-05T21:37:45.664Z,10.10
2018-11-05T21:40:15.566Z,10.10
2018-11-05T21:42:44.001Z,10.00
2018-11-05T21:45:13.607Z,9.90
2018-11-05T21:47:43.106Z,9.90
2018-11-05T21:50:13.441Z,9.90
2018-11-05T21:52:42.477Z,9.80
2018-11-05T21:55:11.168Z,9.80
2018-11-05T21:57:41.288Z,9.80
2018-11-05T22:00:13.687Z,9.80
2018-11-05T22:02:47.580Z,9.70
2018-11-05T22:05:16.579Z,9.70
2018-11-05T22:07:45.288Z,9.70
2018-11-05T22:10:14.245Z,9.60
2018-11-05T22:12:43.662Z,9.60
2018-11-05T22:15:12.212Z,9.60
2018-11-05T22:17:40.681Z,9.60
2018-11-05T22:20:10.140Z,9.60
2018-11-05T22:22:39.074Z,9.60
2018-11-05T22:25:07.788Z,9.60
2018-11-05T22:27:36.490Z,9.60
2018-11-05T22:30:06.227Z,9.60
2018-11-05T22:32:34.747Z,9.50
2018-11-05T22:35:03.264Z,9.50
2018-11-05T22:37:31.688Z,9.50
2018-11-05T22:40:00.179Z,9.50
2018-11-05T22:42:33.291Z,9.50
2018-11-05T22:45:01.763Z,9.50
2018-11-05T22:47:30.244Z,9.40
2018-11-05T22:49:58.631Z,9.40
2018-11-05T22:52:27.372Z,9.40
2018-11-05T22:54:55.845Z,9.40
2018-11-05T22:57:24.221Z,9.40
2018-11-05T22:59:52.676Z,9.30
2018-11-05T23:02:21.126Z,9.30
2018-11-05T23:04:49.575Z,9.30
2018-11-05T23:07:18.105Z,9.30
2018-11-05T23:09:46.583Z,9.20
2018-11-05T23:12:15.215Z,9.20
2018-11-05T23:14:43.688Z,9.10
2018-11-05T23:17:12.840Z,9.10
2018-11-05T23:19:41.304Z,9.10
2018-11-05T23:22:09.712Z,9.10
2018-11-05T23:24:48.745Z,9.00
2018-11-05T23:27:46.623Z,9.00
2018-11-05T23:30:15.111Z,9.00
2018-11-05T23:32:43.780Z,8.90
2018-11-05T23:35:12.478Z,8.90
2018-11-05T23:37:41.723Z,8.80
2018-11-05T23:40:10.566Z,8.80
2018-11-05T23:42:39.874Z,8.80
2018-11-05T23:45:13.934Z,8.80
2018-11-05T23:47:54.407Z,8.70
2018-11-05T23:50:22.867Z,8.80
2018-11-05T23:52:52.235Z,8.80
2018-11-05T23:55:20.695Z,8.70
2018-11-05T23:57:49.105Z,8.70
